Time;durP1;ratioP1;P1;durP2;ratioP2;P2;SDS_P1;SDS_P2;PMS_P1;PMS_P2;Temp;Humidity;BMP_temperature;BMP_pressure;BME280_temperature;BME280_humidity;BME280_pressure;Samples;Min_cycle;Max_cycle;Signal;HPM_P1;HPM_P2
2022/05/13 00:01:19;;;;;;;22.50;15.27;;;19.10;81.80;;;;;;5074825;28;20056;-68
2022/05/13 00:03:45;;;;;;;22.52;16.20;;;19.10;81.70;;;;;;5074825;28;20033;-70
2022/05/13 00:06:11;;;;;;;20.80;15.10;;;19.10;81.40;;;;;;5074625;28;20020;-70
2022/05/13 00:08:37;;;;;;;18.98;14.90;;;19.10;81.20;;;;;;5074501;28;20498;-71
2022/05/13 00:11:05;;;;;;;19.52;15.32;;;19.10;81.00;;;;;;5074584;28;20021;-68
2022/05/13 00:13:31;;;;;;;30.13;16.27;;;19.10;80.70;;;;;;5073985;28;20124;-63
2022/05/13 00:15:57;;;;;;;26.88;17.23;;;19.00;81.60;;;;;;5073737;28;20032;-62
2022/05/13 00:18:23;;;;;;;22.90;16.27;;;19.00;82.40;;;;;;5074092;28;20024;-62
2022/05/13 00:20:49;;;;;;;21.92;16.48;;;18.90;81.80;;;;;;5074306;28;20569;-63
2022/05/13 00:23:15;;;;;;;23.50;17.27;;;18.90;81.60;;;;;;5074332;28;20488;-62
2022/05/13 00:25:41;;;;;;;18.52;15.75;;;18.90;82.60;;;;;;5074299;28;20028;-62
2022/05/13 00:28:08;;;;;;;24.23;15.18;;;18.90;81.40;;;;;;5073748;28;20165;-63
2022/05/13 00:30:37;;;;;;;30.27;16.55;;;18.90;81.10;;;;;;5073935;28;20125;-62
2022/05/13 00:33:03;;;;;;;26.08;18.73;;;18.80;80.70;;;;;;5074048;28;20016;-63
2022/05/13 00:35:29;;;;;;;28.35;18.42;;;18.70;81.30;;;;;;5074294;28;20039;-61
2022/05/13 00:37:55;;;;;;;21.80;17.13;;;18.70;81.80;;;;;;5073896;28;20087;-67
2022/05/13 00:40:23;;;;;;;24.95;18.25;;;18.70;81.80;;;;;;5073891;28;20487;-71
2022/05/13 00:42:49;;;;;;;22.02;17.98;;;18.70;81.80;;;;;;5074029;28;20518;-71
2022/05/13 00:45:17;;;;;;;27.30;18.27;;;18.60;81.60;;;;;;5073875;28;20086;-71
2022/05/13 00:47:44;;;;;;;28.58;17.92;;;18.60;81.60;;;;;;5073736;28;20017;-71
2022/05/13 00:50:12;;;;;;;23.55;17.63;;;18.60;81.40;;;;;;5073643;28;20040;-63
2022/05/13 00:52:44;;;;;;;21.42;16.27;;;18.60;81.70;;;;;;5073446;28;20016;-63
2022/05/13 00:55:14;;;;;;;20.00;16.70;;;18.50;82.00;;;;;;5073534;28;20036;-63
2022/05/13 00:57:41;;;;;;;25.25;17.70;;;18.40;82.20;;;;;;5072623;28;20107;-63
2022/05/13 01:00:11;;;;;;;20.77;17.52;;;18.30;83.30;;;;;;5070480;28;20123;-63
2022/05/13 01:02:39;;;;;;;19.92;17.15;;;18.10;84.00;;;;;;5071040;28;20042;-62
2022/05/13 01:05:05;;;;;;;21.52;17.83;;;18.00;84.40;;;;;;5072032;28;20115;-63
2022/05/13 01:07:32;;;;;;;27.02;17.50;;;17.90;84.90;;;;;;5073496;28;20110;-63
2022/05/13 01:10:03;;;;;;;22.48;17.13;;;17.90;85.90;;;;;;5072925;28;20032;-61
2022/05/13 01:12:34;;;;;;;24.35;18.10;;;17.80;85.30;;;;;;5072930;28;20033;-68
2022/05/13 01:15:12;;;;;;;23.40;17.23;;;17.80;85.60;;;;;;5073520;28;20479;-68
2022/05/13 01:20:28;;;;;;;20.45;17.23;;;17.80;85.80;;;;;;5072889;28;20145;-65
2022/05/13 01:22:58;;;;;;;21.50;17.00;;;17.90;86.00;;;;;;5072998;28;20074;-72
2022/05/13 01:25:26;;;;;;;20.88;17.42;;;17.80;86.10;;;;;;5073123;28;20051;-69
2022/05/13 01:27:54;;;;;;;20.20;16.45;;;17.80;85.40;;;;;;5072668;28;20473;-63
2022/05/13 01:30:24;;;;;;;24.05;17.60;;;17.90;85.30;;;;;;5072630;28;20032;-63
2022/05/13 01:32:50;;;;;;;19.73;17.40;;;17.90;85.60;;;;;;5072637;28;20036;-62
2022/05/13 01:35:16;;;;;;;19.00;16.98;;;17.90;85.70;;;;;;5072789;28;20388;-71
2022/05/13 01:37:41;;;;;;;22.58;17.58;;;17.70;86.40;;;;;;5072833;28;20473;-72
2022/05/13 01:40:07;;;;;;;21.35;17.35;;;17.70;86.10;;;;;;5073006;28;20025;-68
2022/05/13 01:42:34;;;;;;;22.92;17.35;;;17.70;86.50;;;;;;5072787;28;20051;-71
2022/05/13 01:45:00;;;;;;;23.50;17.95;;;17.60;86.50;;;;;;5072697;28;20025;-65
2022/05/13 01:47:26;;;;;;;19.83;17.25;;;17.60;87.40;;;;;;5072859;28;20032;-71
2022/05/13 01:49:54;;;;;;;20.60;17.58;;;17.60;87.00;;;;;;5072890;28;20037;-66
2022/05/13 01:52:20;;;;;;;20.35;17.48;;;17.60;87.00;;;;;;5072865;28;20491;-62
2022/05/13 01:54:46;;;;;;;16.52;13.95;;;17.60;86.90;;;;;;5072719;28;20111;-63
2022/05/13 01:57:12;;;;;;;17.08;13.43;;;17.50;86.90;;;;;;5072808;28;20035;-62
2022/05/13 01:59:38;;;;;;;16.45;13.07;;;17.50;86.90;;;;;;5072919;28;20029;-62
2022/05/13 02:02:03;;;;;;;17.17;12.00;;;17.40;86.60;;;;;;5072922;28;20020;-68
2022/05/13 02:04:29;;;;;;;16.17;11.90;;;17.40;86.00;;;;;;5072885;28;20047;-65
2022/05/13 02:06:55;;;;;;;16.33;11.57;;;17.40;86.40;;;;;;5072750;28;20049;-62
2022/05/13 02:09:21;;;;;;;16.60;11.65;;;17.30;85.90;;;;;;5072226;28;20040;-63
2022/05/13 02:11:46;;;;;;;17.52;11.65;;;17.40;86.50;;;;;;5072467;28;20021;-70
2022/05/13 02:14:14;;;;;;;26.50;11.85;;;17.30;86.50;;;;;;5072317;28;20380;-62
2022/05/13 02:16:40;;;;;;;22.63;11.43;;;17.30;86.90;;;;;;5072377;28;20091;-63
2022/05/13 02:19:06;;;;;;;20.00;11.38;;;17.40;86.20;;;;;;5072748;28;20158;-62
2022/05/13 02:21:31;;;;;;;23.63;11.68;;;17.50;85.70;;;;;;5072566;28;20027;-63
2022/05/13 02:23:57;;;;;;;50.30;11.93;;;17.50;86.10;;;;;;5072474;28;20468;-72
2022/05/13 02:26:23;;;;;;;34.92;11.55;;;17.60;85.80;;;;;;5072101;28;20578;-62
2022/05/13 02:28:49;;;;;;;31.17;11.82;;;17.50;86.00;;;;;;5072239;28;20123;-63
2022/05/13 02:31:15;;;;;;;35.63;12.00;;;17.50;86.50;;;;;;5072354;28;20109;-71
2022/05/13 02:33:43;;;;;;;17.38;11.70;;;17.50;86.00;;;;;;5072257;28;20032;-63
2022/05/13 02:36:11;;;;;;;20.38;12.73;;;17.50;85.70;;;;;;5072473;28;20024;-70
2022/05/13 02:38:38;;;;;;;15.07;11.80;;;17.50;85.30;;;;;;5072333;28;20060;-63
2022/05/13 02:41:13;;;;;;;18.98;11.65;;;17.50;85.70;;;;;;5072417;28;20033;-63
2022/05/13 02:43:53;;;;;;;19.52;12.75;;;17.40;86.00;;;;;;5075480;28;20059;-62
2022/05/13 02:46:28;;;;;;;17.27;12.57;;;17.40;85.90;;;;;;5076015;28;20020;-63
2022/05/13 02:48:54;;;;;;;18.67;12.95;;;17.40;85.00;;;;;;5076203;28;20439;-66
2022/05/13 02:51:21;;;;;;;20.73;13.18;;;17.40;85.30;;;;;;5075870;28;20075;-63
2022/05/13 02:53:47;;;;;;;17.88;12.05;;;17.40;85.60;;;;;;5075808;28;20020;-67
2022/05/13 02:56:13;;;;;;;19.80;12.52;;;17.40;85.90;;;;;;5075897;28;20017;-71
2022/05/13 02:58:40;;;;;;;16.90;13.32;;;17.30;85.80;;;;;;5075683;28;20090;-63
2022/05/13 03:01:08;;;;;;;19.48;13.25;;;17.30;86.40;;;;;;5075571;28;20019;-63
2022/05/13 03:03:36;;;;;;;17.52;12.52;;;17.30;86.40;;;;;;5075838;28;20028;-63
2022/05/13 03:06:02;;;;;;;18.65;13.10;;;17.30;86.40;;;;;;5075553;28;20469;-63
2022/05/13 03:08:28;;;;;;;17.42;12.52;;;17.30;86.60;;;;;;5075784;28;20028;-62
2022/05/13 03:10:53;;;;;;;14.05;12.43;;;17.20;86.30;;;;;;5075494;28;20028;-62
2022/05/13 03:13:20;;;;;;;20.00;12.32;;;17.30;86.70;;;;;;5075746;28;20060;-66
2022/05/13 03:15:47;;;;;;;21.50;12.52;;;17.30;85.70;;;;;;5075529;28;20514;-68
2022/05/13 03:18:13;;;;;;;17.40;11.88;;;17.30;85.70;;;;;;5075591;28;20025;-72
2022/05/13 03:20:39;;;;;;;16.52;13.32;;;17.30;85.90;;;;;;5075511;28;20487;-64
2022/05/13 03:23:04;;;;;;;19.50;12.13;;;17.30;85.50;;;;;;5075634;28;20162;-71
2022/05/13 03:25:31;;;;;;;20.83;13.07;;;17.30;85.60;;;;;;5075369;28;20100;-68
2022/05/13 03:27:57;;;;;;;14.18;11.20;;;17.30;85.30;;;;;;5074951;28;20055;-62
2022/05/13 03:30:24;;;;;;;18.05;11.82;;;17.30;85.60;;;;;;5075382;28;20032;-70
2022/05/13 03:32:51;;;;;;;16.73;11.63;;;17.30;85.30;;;;;;5075173;28;20170;-67
2022/05/13 03:35:18;;;;;;;14.80;11.32;;;17.30;85.50;;;;;;5075336;28;20094;-72
2022/05/13 03:37:44;;;;;;;18.00;11.98;;;17.30;86.10;;;;;;5075398;28;20020;-71
2022/05/13 03:40:12;;;;;;;22.55;11.90;;;17.30;86.10;;;;;;5075103;28;20075;-64
2022/05/13 03:42:39;;;;;;;17.08;11.70;;;17.30;85.90;;;;;;5074951;28;20020;-67
2022/05/13 03:45:07;;;;;;;20.05;11.48;;;17.30;84.90;;;;;;5074977;28;20028;-71
2022/05/13 03:47:32;;;;;;;14.30;11.70;;;17.30;85.50;;;;;;5074698;28;20028;-63
2022/05/13 03:49:58;;;;;;;20.85;11.77;;;17.30;85.30;;;;;;5075181;28;20078;-63
2022/05/13 03:52:24;;;;;;;15.45;10.55;;;17.30;85.30;;;;;;5074851;28;20027;-67
2022/05/13 03:54:50;;;;;;;18.65;11.40;;;17.30;85.90;;;;;;5074115;28;20029;-64
2022/05/13 03:57:16;;;;;;;20.70;10.65;;;17.30;85.40;;;;;;5074940;28;20024;-71
2022/05/13 03:59:41;;;;;;;17.98;10.68;;;17.30;85.60;;;;;;5074577;28;20025;-65
2022/05/13 04:02:07;;;;;;;24.90;10.77;;;17.30;85.60;;;;;;5074671;28;20025;-71
2022/05/13 04:08:56;;;;;;;13.60;8.35;;;17.20;85.70;;;;;;5074820;28;20028;-69
2022/05/13 04:10:06;;;;;;;12.90;8.32;;;17.30;83.70;;;;;;5074848;28;20515;-63
2022/05/13 04:18:01;;;;;;;13.30;8.88;;;17.20;82.80;;;;;;5074512;28;20086;-70
2022/05/13 04:20:27;;;;;;;14.05;8.55;;;17.20;82.70;;;;;;5074602;28;20032;-62
2022/05/13 04:22:52;;;;;;;13.25;6.88;;;17.30;82.50;;;;;;5074273;28;20491;-71
2022/05/13 04:25:19;;;;;;;13.55;6.25;;;17.40;81.70;;;;;;5074191;28;20035;-63
2022/05/13 04:27:45;;;;;;;12.07;5.80;;;17.40;80.80;;;;;;5073704;28;20518;-72
2022/05/13 04:30:12;;;;;;;7.43;5.80;;;17.40;79.80;;;;;;5073767;28;20093;-72
2022/05/13 04:32:38;;;;;;;14.30;5.95;;;17.50;78.90;;;;;;5074058;28;20025;-62
2022/05/13 04:35:04;;;;;;;12.63;5.40;;;17.50;79.90;;;;;;5074027;28;20028;-63
2022/05/13 04:37:29;;;;;;;7.85;5.00;;;17.60;79.10;;;;;;5074232;28;20366;-67
2022/05/13 04:39:55;;;;;;;15.50;7.40;;;17.60;79.00;;;;;;5073679;28;20051;-72
2022/05/13 04:45:07;;;;;;;16.65;6.25;;;17.70;78.80;;;;;;5073988;28;20158;-62
2022/05/13 04:50:16;;;;;;;8.50;6.10;;;17.90;78.50;;;;;;5073318;28;20597;-62
2022/05/13 04:52:42;;;;;;;12.50;5.50;;;17.90;78.20;;;;;;5073656;28;20040;-62
2022/05/13 04:55:09;;;;;;;9.77;5.30;;;18.00;78.70;;;;;;5073579;28;20465;-62
2022/05/13 04:57:35;;;;;;;9.48;5.68;;;18.10;77.30;;;;;;5072029;28;20013;-62
2022/05/13 05:00:00;;;;;;;9.32;5.13;;;18.20;76.90;;;;;;5071561;28;20397;-64
2022/05/13 05:02:28;;;;;;;9.20;5.35;;;18.30;76.40;;;;;;5072700;28;20024;-63
2022/05/13 05:04:54;;;;;;;10.88;5.68;;;18.30;75.60;;;;;;5073193;28;20029;-63
2022/05/13 05:07:19;;;;;;;8.68;4.68;;;18.40;75.70;;;;;;5071781;28;20415;-63
2022/05/13 05:09:45;;;;;;;13.63;4.50;;;18.40;75.70;;;;;;5071973;28;20032;-62
2022/05/13 05:12:11;;;;;;;12.45;5.30;;;18.40;75.40;;;;;;5073254;28;20021;-62
2022/05/13 05:14:37;;;;;;;10.75;5.55;;;18.50;75.40;;;;;;5073070;28;20432;-63
2022/05/13 05:17:03;;;;;;;9.73;5.38;;;18.60;76.10;;;;;;5072635;28;20025;-63
2022/05/13 05:19:29;;;;;;;8.00;4.90;;;18.60;75.70;;;;;;5073092;28;20457;-63
2022/05/13 05:21:54;;;;;;;11.82;5.10;;;18.60;75.30;;;;;;5073120;28;20024;-63
2022/05/13 05:24:20;;;;;;;12.68;6.25;;;18.70;74.90;;;;;;5073120;28;20023;-63
2022/05/13 05:26:45;;;;;;;8.65;4.65;;;18.80;74.80;;;;;;5073279;28;20072;-63
2022/05/13 05:29:11;;;;;;;8.30;6.72;;;18.80;73.90;;;;;;5073305;28;20040;-63
2022/05/13 05:31:37;;;;;;;13.40;8.70;;;18.90;74.20;;;;;;5072487;28;20069;-62
2022/05/13 05:34:02;;;;;;;16.00;10.13;;;18.90;76.20;;;;;;5072844;28;20103;-63
2022/05/13 05:36:28;;;;;;;15.30;10.23;;;18.90;77.50;;;;;;5072621;28;20389;-62
2022/05/13 05:38:54;;;;;;;17.85;10.20;;;18.80;78.00;;;;;;5072603;28;20082;-63
2022/05/13 05:41:20;;;;;;;11.55;9.50;;;;;;;;;;5072693;28;20024;-66
2022/05/13 05:43:46;;;;;;;16.73;10.18;;;;;;;;;;5072983;28;20472;-65
2022/05/13 05:46:12;;;;;;;19.15;10.13;;;;;;;;;;5072650;28;20024;-64
2022/05/13 05:48:38;;;;;;;16.35;10.75;;;;;;;;;;5072351;28;20427;-65
2022/05/13 05:51:04;;;;;;;16.85;9.65;;;;;;;;;;5072899;28;20078;-66
2022/05/13 05:59:01;;;;;;;23.67;10.23;;;;;;;;;;5072843;28;20543;-66
2022/05/13 06:01:28;;;;;;;18.50;9.13;;;;;;;;;;5072705;28;20370;-66
2022/05/13 06:03:54;;;;;;;24.92;9.93;;;;;;;;;;5072510;28;20487;-66
2022/05/13 06:06:21;;;;;;;27.58;9.45;;;;;;;;;;5072813;28;20031;-65
2022/05/13 06:08:47;;;;;;;17.85;7.88;;;;;;;;;;5072655;28;20118;-65
2022/05/13 06:11:13;;;;;;;18.48;8.45;;;;;;;;;;5072645;28;20032;-65
2022/05/13 06:13:39;;;;;;;16.73;8.57;;;;;;;;;;5072451;28;20035;-68
2022/05/13 06:16:08;;;;;;;20.27;8.00;;;;;;;;;;5072605;28;20045;-67
2022/05/13 06:18:36;;;;;;;19.48;8.50;;;;;;;;;;5075449;28;20028;-68
2022/05/13 06:21:02;;;;;;;15.55;8.45;;;;;;;;;;5075803;28;20031;-68
2022/05/13 06:35:50;;;;;;;16.35;7.25;;;;;;;;;;5110631;27;20460;-67
2022/05/13 06:38:20;;;;;;;14.48;8.30;;;;;;;;;;5110693;28;20114;-68
2022/05/13 06:40:47;;;;;;;12.18;6.93;;;;;;;;;;5110518;28;20030;-70
2022/05/13 06:43:14;;;;;;;14.00;6.82;;;;;;;;;;5110547;28;20032;-69
2022/05/13 06:45:41;;;;;;;15.57;6.57;;;;;;;;;;5110635;28;20448;-67
2022/05/13 06:48:07;;;;;;;10.90;6.18;;;;;;;;;;5110472;28;20055;-68
2022/05/13 06:50:33;;;;;;;13.75;6.75;;;;;;;;;;5110358;28;20034;-67
2022/05/13 07:10:20;;;;;;;12.40;6.40;;;;;;;;;;5151653;27;20108;-68
2022/05/13 07:12:46;;;;;;;54.67;9.48;;;;;;;;;;5150786;27;20058;-68
2022/05/13 07:15:13;;;;;;;13.80;5.63;;;;;;;;;;5151634;27;20019;-68
2022/05/13 07:17:40;;;;;;;9.73;5.03;;;;;;;;;;5151959;27;20051;-68
2022/05/13 07:20:06;;;;;;;13.55;5.82;;;;;;;;;;5151315;27;20072;-68
2022/05/13 07:22:34;;;;;;;7.28;4.78;;;;;;;;;;5150892;27;20023;-69
2022/05/13 07:25:00;;;;;;;9.98;4.82;;;;;;;;;;5150835;27;20080;-69
2022/05/13 07:27:26;;;;;;;12.68;4.45;;;;;;;;;;5151207;27;20022;-70
2022/05/13 07:29:52;;;;;;;10.63;3.83;;;;;;;;;;5150033;27;20480;-70
2022/05/13 07:32:18;;;;;;;6.20;3.97;;;;;;;;;;5151134;27;20023;-68
2022/05/13 07:34:44;;;;;;;16.05;4.45;;;;;;;;;;5151415;27;20031;-68
2022/05/13 07:37:10;;;;;;;6.50;4.00;;;;;;;;;;5151478;27;20027;-68
2022/05/13 07:42:21;;;;;;;9.30;4.60;;;;;;;;;;5151563;27;20095;-70
2022/05/13 07:44:47;;;;;;;7.75;4.25;;;;;;;;;;5151355;27;20027;-68
2022/05/13 07:47:14;;;;;;;7.75;4.30;;;;;;;;;;5151398;27;20023;-68
2022/05/13 07:49:42;;;;;;;13.25;5.13;;;;;;;;;;5151267;27;20171;-68
2022/05/13 07:52:09;;;;;;;12.90;4.60;;;;;;;;;;5151072;27;20023;-68
2022/05/13 07:54:35;;;;;;;11.88;4.05;;;;;;;;;;5151147;27;20023;-68
2022/05/13 07:57:01;;;;;;;12.00;4.18;;;;;;;;;;5150950;27;20042;-67
2022/05/13 07:59:27;;;;;;;10.95;4.32;;;;;;;;;;5150846;27;20083;-70
2022/05/13 08:01:54;;;;;;;9.55;4.50;;;;;;;;;;5150900;27;20019;-68
2022/05/13 08:04:20;;;;;;;5.72;4.07;;;;;;;;;;5150953;27;20027;-68
2022/05/13 08:06:46;;;;;;;6.78;4.22;;;;;;;;;;5150805;27;20019;-68
2022/05/13 08:09:12;;;;;;;10.40;4.80;;;;;;;;;;5148865;27;20047;-68
2022/05/13 08:11:38;;;;;;;10.68;4.28;;;;;;;;;;5136718;27;20103;-68
2022/05/13 08:14:05;;;;;;;11.60;4.60;;;;;;;;;;5136923;27;20031;-68
2022/05/13 08:16:33;;;;;;;12.60;4.50;;;;;;;;;;5136670;27;20015;-68
2022/05/13 08:18:59;;;;;;;7.65;4.00;;;;;;;;;;5136930;27;20027;-68
2022/05/13 08:21:25;;;;;;;22.50;5.85;;;;;;;;;;5135280;27;20024;-70
2022/05/13 08:23:52;;;;;;;11.93;4.00;;;;;;;;;;5136675;27;20429;-68
2022/05/13 08:26:18;;;;;;;9.02;4.00;;;;;;;;;;5136610;27;20491;-68
2022/05/13 08:28:45;;;;;;;14.10;4.45;;;;;;;;;;5136491;27;20031;-68
2022/05/13 08:31:13;;;;;;;8.80;3.92;;;;;;;;;;5136528;27;20013;-68
2022/05/13 08:33:40;;;;;;;10.98;3.90;;;;;;;;;;5136474;27;20023;-69
2022/05/13 08:36:06;;;;;;;7.63;3.92;;;;;;;;;;5136285;27;20354;-68
2022/05/13 08:38:34;;;;;;;8.50;3.97;;;;;;;;;;5135957;27;20023;-68
2022/05/13 08:41:10;;;;;;;7.03;3.80;;;;;;;;;;5136246;27;20023;-68
2022/05/13 08:43:41;;;;;;;9.05;3.72;;;;;;;;;;5136307;27;20027;-68
2022/05/13 08:46:30;;;;;;;7.03;3.27;;;;;;;;;;5136562;27;20049;-69
2022/05/13 08:49:22;;;;;;;12.82;3.75;;;;;;;;;;5127760;27;20293;-68
2022/05/13 08:53:06;;;;;;;8.52;3.85;;;;;;;;;;5135768;27;20045;-69
2022/05/13 08:54:53;;;;;;;10.00;4.20;;;;;;;;;;5135907;27;20157;-72
2022/05/13 08:57:21;;;;;;;8.52;3.80;;;;;;;;;;5135380;27;20063;-69
2022/05/13 08:59:58;;;;;;;10.73;3.85;;;;;;;;;;5134861;27;20458;-69
2022/05/13 09:02:35;;;;;;;7.88;3.25;;;;;;;;;;5133549;27;20019;-69
2022/05/13 09:05:05;;;;;;;7.03;3.30;;;;;;;;;;5134383;27;20023;-69
2022/05/13 09:07:31;;;;;;;5.80;3.50;;;;;;;;;;5135712;27;20027;-69
2022/05/13 09:10:01;;;;;;;14.30;3.50;;;;;;;;;;5135359;27;20130;-69
2022/05/13 09:12:30;;;;;;;13.90;3.20;;;;;;;;;;5135721;27;20023;-69
2022/05/13 09:14:59;;;;;;;7.57;3.70;;;;;;;;;;5135722;27;20027;-68
2022/05/13 09:17:31;;;;;;;10.27;4.30;;;;;;;;;;5135402;27;20096;-70
2022/05/13 09:19:57;;;;;;;8.65;3.55;;;;;;;;;;5135517;27;20031;-69
2022/05/13 09:22:23;;;;;;;12.98;4.25;;;;;;;;;;5133410;27;20429;-69
2022/05/13 09:24:49;;;;;;;11.68;3.38;;;;;;;;;;5135663;27;20061;-69
2022/05/13 09:27:15;;;;;;;6.15;3.17;;;;;;;;;;5135368;27;20050;-69
2022/05/13 09:29:45;;;;;;;11.23;3.60;;;;;;;;;;5135357;27;20031;-69
2022/05/13 09:32:15;;;;;;;9.13;3.92;;;;;;;;;;5135534;27;20023;-68
2022/05/13 09:34:50;;;;;;;7.40;3.25;;;;;;;;;;5135525;27;20426;-69
2022/05/13 09:37:21;;;;;;;10.77;4.18;;;;;;;;;;5135443;27;20027;-69
2022/05/13 09:39:48;;;;;;;8.03;3.50;;;;;;;;;;5135123;27;20054;-69
2022/05/13 09:42:37;;;;;;;11.02;3.83;;;;;;;;;;5134899;27;20022;-69
2022/05/13 09:45:18;;;;;;;14.35;4.10;;;;;;;;;;5126889;27;20031;-69
2022/05/13 09:47:46;;;;;;;8.82;3.53;;;;;;;;;;5134339;27;20035;-69
2022/05/13 09:50:24;;;;;;;8.20;3.78;;;;;;;;;;5134521;27;20068;-68
2022/05/13 09:52:52;;;;;;;6.32;3.30;;;;;;;;;;5134994;27;20015;-70
2022/05/13 09:55:26;;;;;;;14.60;4.40;;;;;;;;;;5134922;27;20061;-69
2022/05/13 09:57:54;;;;;;;7.63;3.90;;;;;;;;;;5134788;27;20022;-68
2022/05/13 10:00:27;;;;;;;10.15;4.50;;;;;;;;;;5134798;27;20043;-69
2022/05/13 10:03:10;;;;;;;10.70;3.72;;;;;;;;;;5134357;27;20034;-68
2022/05/13 10:05:37;;;;;;;11.95;3.10;;;;;;;;;;5134451;27;20480;-69
2022/05/13 10:08:06;;;;;;;9.02;3.70;;;;;;;;;;5133967;27;20035;-68
2022/05/13 10:16:19;;;;;;;13.52;3.70;;;;;;;;;;5132458;27;20087;-69
2022/05/13 10:18:52;;;;;;;11.93;4.18;;;;;;;;;;5132237;27;20071;-68
2022/05/13 10:21:38;;;;;;;10.00;3.72;;;;;;;;;;5131613;27;20075;-68
2022/05/13 10:24:23;;;;;;;11.18;3.60;;;;;;;;;;5121090;27;20035;-68
2022/05/13 10:26:50;;;;;;;8.27;4.20;;;;;;;;;;5134201;27;20026;-68
2022/05/13 10:29:24;;;;;;;11.68;3.53;;;;;;;;;;5133947;27;20458;-69
2022/05/13 10:31:50;;;;;;;8.55;3.72;;;;;;;;;;5134130;27;20019;-68
2022/05/13 10:34:32;;;;;;;10.60;3.60;;;;;;;;;;5134194;27;20115;-68
2022/05/13 10:37:02;;;;;;;9.73;3.73;;;;;;;;;;5133945;27;20022;-68
2022/05/13 10:39:30;;;;;;;8.52;3.40;;;;;;;;;;5134063;27;20264;-68
2022/05/13 10:41:58;;;;;;;8.98;3.58;;;;;;;;;;5134235;27;20031;-68
2022/05/13 10:44:30;;;;;;;10.32;3.53;;;;;;;;;;5133959;27;20027;-68
2022/05/13 10:46:56;;;;;;;;;;;;;;;;;;5134456;27;20030;-68
2022/05/13 10:49:32;;;;;;;8.05;3.10;;;;;;;;;;5132971;27;20313;-68
2022/05/13 10:52:04;;;;;;;9.13;3.90;;;;;;;;;;5133886;27;20057;-70
2022/05/13 10:54:49;;;;;;;14.07;3.38;;;;;;;;;;5133487;27;20076;-69
2022/05/13 10:57:33;;;;;;;8.38;3.30;;;;;;;;;;5132482;27;20427;-68
2022/05/13 11:00:20;;;;;;;8.57;3.63;;;;;;;;;;5133464;27;20030;-68
2022/05/13 11:02:46;;;;;;;13.85;4.60;;;;;;;;;;5133845;28;20031;-70
2022/05/13 11:05:12;;;;;;;8.60;3.72;;;;;;;;;;5133288;27;20449;-68
2022/05/13 11:07:50;;;;;;;7.93;3.15;;;;;;;;;;5132983;27;20049;-68
2022/05/13 11:10:35;;;;;;;10.38;3.30;;;;;;;;;;5133369;28;20089;-70
2022/05/13 11:13:19;;;;;;;9.18;3.25;;;;;;;;;;5132682;28;20126;-68
2022/05/13 11:16:10;;;;;;;11.18;3.72;;;;;;;;;;5131139;28;20061;-68
2022/05/13 11:18:40;;;;;;;11.93;3.08;;;;;;;;;;5132610;27;20031;-69
2022/05/13 11:21:06;;;;;;;8.35;3.30;;;;;;;;;;5133432;27;20011;-68
2022/05/13 11:25:54;;;;;;;8.05;2.97;;;;;;;;;;5133434;28;20038;-68
2022/05/13 11:26:35;;;;;;;11.30;3.15;;;;;;;;;;5132750;28;20037;-67
2022/05/13 11:29:01;;;;;;;13.38;3.45;;;;;;;;;;5133054;27;20076;-68
2022/05/13 11:31:30;;;;;;;7.47;3.42;;;;;;;;;;5132874;27;20072;-68
2022/05/13 11:33:59;;;;;;;12.35;2.95;;;;;;;;;;5132726;28;20075;-67
2022/05/13 11:36:37;;;;;;;7.95;2.92;;;;;;;;;;5133297;28;20019;-71
2022/05/13 11:39:16;;;;;;;10.00;3.13;;;;;;;;;;5129869;27;20034;-69
2022/05/13 11:41:57;;;;;;;6.53;3.00;;;;;;;;;;5129806;28;20032;-68
2022/05/13 11:44:33;;;;;;;9.07;2.88;;;;;;;;;;5131195;27;20023;-68
2022/05/13 11:47:06;;;;;;;7.13;3.42;;;;;;;;;;5136387;27;20027;-68
2022/05/13 11:49:35;;;;;;;5.78;2.90;;;;;;;;;;5136936;27;20537;-70
2022/05/13 11:52:13;;;;;;;4.18;2.50;;;;;;;;;;5136809;27;20027;-68
2022/05/13 11:54:41;;;;;;;10.10;3.38;;;;;;;;;;5135810;27;20069;-70
2022/05/13 11:57:25;;;;;;;7.22;2.80;;;;;;;;;;5136955;27;20027;-71
2022/05/13 11:59:55;;;;;;;12.15;3.10;;;;;;;;;;5136841;27;20055;-69
2022/05/13 12:02:40;;;;;;;10.10;3.15;;;;;;;;;;5136261;27;20025;-69
2022/05/13 12:05:06;;;;;;;10.10;3.28;;;;;;;;;;5136611;27;20023;-69
2022/05/13 12:07:40;;;;;;;10.60;3.00;;;;;;;;;;5136597;27;20019;-68
2022/05/13 12:10:07;;;;;;;13.38;3.00;;;;;;;;;;5136183;27;20137;-69
2022/05/13 12:12:57;;;;;;;6.97;3.13;;;;;;;;;;5136577;27;20362;-69
2022/05/13 12:15:33;;;;;;;9.15;2.80;;;;;;;;;;5136550;27;20096;-68
2022/05/13 12:18:06;;;;;;;11.00;3.08;;;;;;;;;;5136366;27;20027;-68
2022/05/13 12:20:35;;;;;;;11.27;4.05;;;;;;;;;;5136220;27;20031;-69
2022/05/13 12:23:13;;;;;;;12.60;3.85;;;;;;;;;;5136309;27;20023;-68
2022/05/13 12:25:39;;;;;;;10.43;3.17;;;;;;;;;;5136703;27;20023;-69
2022/05/13 12:28:21;;;;;;;9.93;3.30;;;;;;;;;;5136379;27;20046;-71
2022/05/13 12:30:49;;;;;;;10.15;3.28;;;;;;;;;;5136572;27;20076;-69
2022/05/13 12:33:24;;;;;;;7.63;3.53;;;;;;;;;;5136709;27;20481;-67
2022/05/13 12:38:54;;;;;;;11.45;3.58;;;;;;;;;;5135660;27;20060;-69
2022/05/13 12:41:24;;;;;;;10.85;3.30;;;;;;;;;;5135204;27;20031;-69
2022/05/13 12:44:10;;;;;;;8.77;3.20;;;;;;;;;;5134734;27;20068;-69
2022/05/13 12:46:47;;;;;;;8.85;3.30;;;;;;;;;;5135565;27;20023;-68
2022/05/13 12:49:26;;;;;;;9.68;3.40;;;;;;;;;;5136026;27;20031;-68
2022/05/13 12:52:00;;;;;;;13.02;3.70;;;;;;;;;;5136087;27;20031;-67
2022/05/13 12:54:27;;;;;;;8.82;3.28;;;;;;;;;;5136283;27;20023;-67
2022/05/13 12:57:14;;;;;;;9.27;3.22;;;;;;;;;;5135850;27;20541;-68
2022/05/13 12:59:43;;;;;;;12.75;3.70;;;;;;;;;;5122037;27;20043;-68
2022/05/13 13:02:09;;;;;;;6.43;3.03;;;;;;;;;;5132986;27;20441;-68
2022/05/13 13:04:42;;;;;;;8.48;3.20;;;;;;;;;;5135319;27;20023;-67
2022/05/13 13:07:10;;;;;;;11.98;3.33;;;;;;;;;;5135851;27;20072;-68
2022/05/13 13:09:41;;;;;;;4.68;3.03;;;;;;;;;;5135493;27;20047;-71
2022/05/13 13:12:13;;;;;;;6.30;2.83;;;;;;;;;;5135430;27;20019;-72
2022/05/13 13:14:58;;;;;;;9.40;3.55;;;;;;;;;;5134702;27;20046;-67
2022/05/13 13:17:30;;;;;;;9.00;3.30;;;;;;;;;;5135056;27;20027;-68
2022/05/13 13:19:58;;;;;;;9.30;3.40;;;;;;;;;;5135646;27;20101;-69
2022/05/13 13:22:25;;;;;;;9.43;3.13;;;;;;;;;;5135316;27;20055;-69
2022/05/13 13:24:52;;;;;;;9.85;4.13;;;;;;;;;;5132007;27;20027;-69
2022/05/13 13:27:19;;;;;;;8.38;3.13;;;;;;;;;;5132041;27;20025;-68
2022/05/13 13:29:46;;;;;;;8.02;2.90;;;;;;;;;;5132006;27;20042;-68
2022/05/13 13:32:14;;;;;;;7.72;3.13;;;;;;;;;;5132439;27;20473;-68
2022/05/13 13:34:48;;;;;;;9.95;3.70;;;;;;;;;;5132092;27;20027;-68
2022/05/13 13:37:15;;;;;;;11.07;3.55;;;;;;;;;;5134913;27;20055;-68
2022/05/13 13:39:41;;;;;;;12.75;4.05;;;;;;;;;;5134638;27;20061;-68
2022/05/13 13:42:11;;;;;;;7.05;3.42;;;;;;;;;;5135145;27;20023;-69
2022/05/13 13:44:38;;;;;;;8.75;3.30;;;;;;;;;;5135205;27;20027;-69
2022/05/13 13:47:05;;;;;;;10.13;3.13;;;;;;;;;;5134466;27;20056;-69
2022/05/13 13:49:39;;;;;;;8.45;3.50;;;;;;;;;;5134715;27;20047;-68
2022/05/13 13:52:07;;;;;;;11.70;3.33;;;;;;;;;;5134816;27;20038;-68
2022/05/13 13:54:35;;;;;;;7.22;3.13;;;;;;;;;;5134736;27;20023;-67
2022/05/13 13:57:12;;;;;;;11.57;3.05;;;;;;;;;;5134858;27;20023;-68
2022/05/13 13:59:50;;;;;;;15.13;3.55;;;;;;;;;;5133617;27;20034;-68
2022/05/13 14:02:31;;;;;;;11.90;3.83;;;;;;;;;;5132908;27;20027;-67
2022/05/13 14:04:58;;;;;;;17.30;3.30;;;;;;;;;;5134000;27;20023;-68
2022/05/13 14:07:25;;;;;;;9.88;3.28;;;;;;;;;;5133545;27;20047;-68
2022/05/13 14:09:51;;;;;;;13.60;3.20;;;;;;;;;;5133988;27;20043;-68
2022/05/13 14:12:20;;;;;;;7.88;2.60;;;;;;;;;;5134398;27;20083;-68
2022/05/13 14:14:49;;;;;;;10.45;3.10;;;;;;;;;;5134603;27;20034;-68
2022/05/13 14:17:19;;;;;;;11.43;2.97;;;;;;;;;;5132863;27;20026;-67
2022/05/13 14:19:55;;;;;;;7.47;3.25;;;;;;;;;;5133875;27;20024;-68
2022/05/13 14:22:21;;;;;;;12.85;2.80;;;;;;;;;;5131147;27;20026;-68
2022/05/13 14:24:49;;;;;;;8.90;2.95;;;;;;;;;;5133580;27;20046;-69
2022/05/13 14:27:21;;;;;;;12.18;3.75;;;;;;;;;;5133885;27;20030;-71
2022/05/13 14:29:48;;;;;;;7.80;2.95;;;;;;;;;;5093411;27;20058;-71
2022/05/13 14:32:16;;;;;;;9.00;3.35;;;;;;;;;;5092328;28;20065;-68
2022/05/13 14:34:43;;;;;;;8.68;3.60;;;;;;;;;;5092809;28;20440;-67
2022/05/13 14:37:13;;;;;;;10.65;3.40;;;;;;;;;;5092615;28;20451;-68
2022/05/13 14:39:50;;;;;;;9.88;3.22;;;;;;;;;;5092209;28;20077;-68
2022/05/13 14:42:19;;;;;;;12.00;2.60;;;;;;;;;;5092771;28;20427;-69
2022/05/13 14:44:48;;;;;;;10.32;3.05;;;;;;;;;;5092620;28;20032;-72
2022/05/13 14:47:26;;;;;;;17.50;3.50;;;;;;;;;;5092005;28;20050;-71
2022/05/13 14:50:14;;;;;;;8.43;3.15;;;;;;;;;;5092277;28;20085;-69
2022/05/13 14:52:42;;;;;;;7.03;2.63;;;;;;;;;;5092594;28;20024;-71
2022/05/13 14:55:25;;;;;;;10.93;3.10;;;;;;;;;;5092546;28;20028;-71
2022/05/13 14:57:52;;;;;;;11.20;2.97;;;;;;;;;;5092691;28;20032;-68